createdAt,value
2019-02-21T00:04:20.283Z,11.63
2019-02-21T00:07:00.258Z,11.83
2019-02-21T00:09:40.369Z,11.70
2019-02-21T00:12:20.269Z,11.73
2019-02-21T00:15:00.543Z,11.57
2019-02-21T00:17:40.758Z,11.65
2019-02-21T00:20:20.827Z,11.60
2019-02-21T00:23:00.922Z,11.70
2019-02-21T00:25:40.954Z,11.60
2019-02-21T00:28:21.187Z,12.35
2019-02-21T00:31:01.133Z,12.25
2019-02-21T00:33:41.498Z,12.93
2019-02-21T00:36:21.639Z,12.55
2019-02-21T00:39:01.942Z,11.75
2019-02-21T00:41:41.793Z,11.85
2019-02-21T00:44:21.894Z,11.95
2019-02-21T00:47:01.929Z,12.07
2019-02-21T00:49:42.146Z,12.47
2019-02-21T00:52:22.110Z,12.50
2019-02-21T00:55:02.135Z,11.80
2019-02-21T00:57:42.165Z,12.45
2019-02-21T01:00:22.162Z,12.85
2019-02-21T01:03:02.173Z,12.13
2019-02-21T01:05:42.265Z,13.08
2019-02-21T01:08:22.543Z,13.18
2019-02-21T01:11:02.694Z,13.40
2019-02-21T01:13:42.728Z,13.05
2019-02-21T01:16:22.856Z,12.63
2019-02-21T01:19:03.093Z,12.95
2019-02-21T01:21:43.378Z,12.85
2019-02-21T01:24:23.327Z,13.65
2019-02-21T01:27:03.343Z,13.85
2019-02-21T01:29:43.298Z,13.98
2019-02-21T01:32:23.434Z,12.95
2019-02-21T01:35:03.587Z,14.07
2019-02-21T01:37:43.643Z,12.95
2019-02-21T01:40:23.694Z,13.43
2019-02-21T01:43:03.737Z,13.90
2019-02-21T01:45:43.835Z,13.38
2019-02-21T01:48:23.794Z,12.93
2019-02-21T01:51:03.870Z,13.45
2019-02-21T01:53:44.041Z,12.98
2019-02-21T01:56:24.098Z,13.53
2019-02-21T01:59:04.409Z,12.80
2019-02-21T02:01:44.636Z,13.62
2019-02-21T02:04:24.630Z,12.85
2019-02-21T02:07:04.672Z,13.80
2019-02-21T02:09:44.678Z,13.28
2019-02-21T02:12:24.814Z,13.25
2019-02-21T02:15:04.665Z,12.65
2019-02-21T02:17:44.738Z,13.53
2019-02-21T02:20:24.732Z,14.25
2019-02-21T02:23:05.014Z,13.60
2019-02-21T02:25:44.927Z,13.65
2019-02-21T02:28:24.846Z,13.00
2019-02-21T02:31:04.806Z,13.15
2019-02-21T02:33:45.048Z,13.20
2019-02-21T02:36:25.148Z,13.68
2019-02-21T02:39:05.220Z,13.50
2019-02-21T02:41:45.328Z,13.65
2019-02-21T02:44:25.328Z,13.62
2019-02-21T02:47:05.379Z,14.65
2019-02-21T02:49:45.627Z,13.72
2019-02-21T02:52:25.515Z,13.93
2019-02-21T02:55:05.592Z,12.40
2019-02-21T02:57:45.437Z,13.55
2019-02-21T03:00:25.561Z,13.83
2019-02-21T03:03:05.637Z,12.58
2019-02-21T03:05:43.633Z,13.18
2019-02-21T03:08:30.458Z,13.40
2019-02-21T03:11:17.357Z,13.48
2019-02-21T03:14:04.189Z,13.93
2019-02-21T03:16:51.058Z,14.05
2019-02-21T03:19:37.926Z,13.53
2019-02-21T03:22:05.453Z,12.80
2019-02-21T03:24:32.788Z,13.78
2019-02-21T03:27:00.115Z,13.28
2019-02-21T03:29:27.457Z,13.25
2019-02-21T03:31:56.066Z,13.85
2019-02-21T03:34:23.892Z,13.65
2019-02-21T03:36:51.224Z,13.25
2019-02-21T03:39:18.573Z,14.65
2019-02-21T03:41:45.917Z,14.10
2019-02-21T03:44:13.297Z,13.83
2019-02-21T03:46:40.730Z,13.48
2019-02-21T03:49:27.593Z,14.18
2019-02-21T03:52:14.472Z,13.03
2019-02-21T03:55:01.409Z,13.60
2019-02-21T03:57:48.245Z,13.55
2019-02-21T04:00:35.116Z,13.30
2019-02-21T04:03:21.984Z,13.58
2019-02-21T04:06:08.925Z,13.55
2019-02-21T04:08:55.770Z,14.05
2019-02-21T04:11:23.145Z,14.00
2019-02-21T04:14:09.985Z,13.55
2019-02-21T04:20:11.578Z,13.05
2019-02-21T04:22:58.428Z,13.90
2019-02-21T04:25:45.292Z,13.72
2019-02-21T04:31:38.835Z,13.28
2019-02-21T04:34:18.500Z,13.18
2019-02-21T04:36:58.674Z,14.30
2019-02-21T04:39:38.726Z,12.98
2019-02-21T04:42:18.772Z,13.93
2019-02-21T04:44:58.835Z,13.65
2019-02-21T04:47:38.957Z,14.00
2019-02-21T04:50:19.276Z,14.00
2019-02-21T04:52:59.322Z,14.35
2019-02-21T04:55:39.287Z,14.13
2019-02-21T04:58:19.222Z,14.78
2019-02-21T05:00:59.336Z,13.75
2019-02-21T05:03:39.480Z,14.63
2019-02-21T05:06:19.728Z,13.75
2019-02-21T05:08:59.751Z,14.58
2019-02-21T05:11:39.702Z,14.20
2019-02-21T05:14:19.794Z,14.83
2019-02-21T05:17:00.703Z,14.58
2019-02-21T05:19:41.199Z,14.63
2019-02-21T05:22:21.409Z,14.03
2019-02-21T05:25:01.784Z,15.35
2019-02-21T05:31:29.683Z,15.45
2019-02-21T05:34:16.552Z,15.18
2019-02-21T05:40:22.240Z,15.50
2019-02-21T05:43:21.426Z,15.83
2019-02-21T05:49:28.246Z,16.07
2019-02-21T05:52:34.591Z,16.27
2019-02-21T05:55:40.947Z,16.62
2019-02-21T05:58:13.243Z,16.48
2019-02-21T06:01:19.573Z,16.90
2019-02-21T06:04:25.922Z,16.60
2019-02-21T06:07:41.383Z,16.73
2019-02-21T06:10:40.684Z,16.05
2019-02-21T06:13:37.717Z,16.40
2019-02-21T06:16:11.715Z,17.07
2019-02-21T06:18:56.691Z,16.70
2019-02-21T06:21:43.571Z,18.02
2019-02-21T06:24:30.492Z,17.67
2019-02-21T06:27:13.288Z,17.70
2019-02-21T06:36:16.532Z,17.07
2019-02-21T06:38:56.478Z,17.30
2019-02-21T06:41:36.795Z,19.15
2019-02-21T06:44:16.959Z,18.10
2019-02-21T06:46:57.136Z,18.07
2019-02-21T06:49:37.132Z,17.92
2019-02-21T06:52:17.333Z,19.32
2019-02-21T06:54:57.471Z,19.25
2019-02-21T06:57:37.354Z,17.70
2019-02-21T07:00:17.561Z,17.67
2019-02-21T07:02:57.677Z,17.57
2019-02-21T07:05:37.970Z,19.05
2019-02-21T07:08:18.269Z,19.27
2019-02-21T07:11:05.790Z,19.55
2019-02-21T07:13:40.576Z,18.20
2019-02-21T07:16:20.692Z,18.07
2019-02-21T07:19:00.990Z,18.87
2019-02-21T07:21:41.201Z,18.05
2019-02-21T07:24:21.522Z,20.05
2019-02-21T07:27:01.181Z,18.30
2019-02-21T07:29:42.489Z,19.45
2019-02-21T07:32:22.387Z,18.80
2019-02-21T07:35:03.533Z,18.73
2019-02-21T07:37:43.593Z,20.10
2019-02-21T07:40:23.789Z,19.25
2019-02-21T07:43:03.832Z,19.35
2019-02-21T07:45:43.647Z,18.60
2019-02-21T07:48:23.800Z,18.73
2019-02-21T07:51:04.080Z,18.80
2019-02-21T07:53:44.146Z,16.42
2019-02-21T07:56:24.089Z,16.77
2019-02-21T07:59:04.077Z,17.25
2019-02-21T08:01:44.291Z,18.05
2019-02-21T08:04:24.340Z,18.85
2019-02-21T08:07:04.242Z,17.00
2019-02-21T08:09:44.166Z,17.48
2019-02-21T08:12:23.992Z,16.95
2019-02-21T08:15:03.807Z,17.40
2019-02-21T08:17:43.763Z,16.62
2019-02-21T08:20:33.549Z,16.90
2019-02-21T08:23:06.228Z,17.25
2019-02-21T08:25:45.971Z,16.50
2019-02-21T08:28:25.815Z,18.05
2019-02-21T08:31:05.947Z,17.37
2019-02-21T08:34:04.464Z,17.33
2019-02-21T08:37:05.483Z,17.97
2019-02-21T08:39:45.509Z,18.37
2019-02-21T08:42:25.400Z,18.23
2019-02-21T08:45:05.380Z,18.60
2019-02-21T08:47:45.347Z,17.20
2019-02-21T08:50:25.477Z,17.13
2019-02-21T08:53:05.342Z,17.77
2019-02-21T08:55:45.291Z,17.33
2019-02-21T08:58:25.121Z,17.47
2019-02-21T09:01:05.160Z,18.40
2019-02-21T09:03:45.053Z,18.43
2019-02-21T09:06:24.929Z,18.13
2019-02-21T09:09:04.962Z,18.30
2019-02-21T09:11:45.056Z,17.70
2019-02-21T09:14:25.141Z,17.40
2019-02-21T09:17:05.165Z,17.93
2019-02-21T09:19:45.200Z,18.67
2019-02-21T09:22:25.337Z,17.77
2019-02-21T09:25:05.949Z,17.53
2019-02-21T09:27:45.615Z,19.17
2019-02-21T09:30:25.953Z,17.97
2019-02-21T09:33:16.638Z,19.67
2019-02-21T09:35:47.997Z,19.83
2019-02-21T09:38:28.132Z,20.20
2019-02-21T09:41:08.250Z,20.67
2019-02-21T09:43:50.792Z,21.80
2019-02-21T09:46:30.385Z,20.97
2019-02-21T09:49:10.550Z,21.27
2019-02-21T09:51:50.493Z,21.47
2019-02-21T09:54:30.504Z,21.33
2019-02-21T09:57:13.167Z,21.17
2019-02-21T09:59:52.332Z,21.63
2019-02-21T10:02:32.217Z,22.20
2019-02-21T10:05:12.321Z,21.47
2019-02-21T10:07:52.301Z,22.03
2019-02-21T10:10:32.328Z,20.90
2019-02-21T10:13:13.240Z,21.87
2019-02-21T10:15:53.565Z,22.27
2019-02-21T10:18:33.475Z,23.73
2019-02-21T10:21:13.559Z,23.13
2019-02-21T10:23:53.377Z,24.10
2019-02-21T10:26:33.469Z,24.00
2019-02-21T10:29:13.579Z,23.20
2019-02-21T10:31:53.621Z,23.23
2019-02-21T10:34:42.692Z,23.67
2019-02-21T10:37:15.863Z,22.27
2019-02-21T10:39:55.818Z,21.60
2019-02-21T10:42:35.757Z,21.33
2019-02-21T10:45:15.654Z,21.83
2019-02-21T10:47:55.589Z,22.37
2019-02-21T10:50:35.537Z,22.07
2019-02-21T10:53:15.783Z,23.97
2019-02-21T10:55:55.791Z,22.87
2019-02-21T10:58:36.155Z,24.03
2019-02-21T11:01:16.029Z,23.37
2019-02-21T11:03:55.966Z,23.77
2019-02-21T11:06:35.727Z,24.07
2019-02-21T11:09:16.007Z,25.60
2019-02-21T11:11:55.885Z,25.03
2019-02-21T11:14:47.047Z,24.27
2019-02-21T11:17:18.034Z,26.40
2019-02-21T11:19:58.213Z,25.73
2019-02-21T11:22:38.279Z,24.87
2019-02-21T11:25:18.366Z,25.13
2019-02-21T11:27:58.433Z,25.53
2019-02-21T11:30:38.534Z,24.60
2019-02-21T11:33:18.554Z,25.93
2019-02-21T11:35:58.880Z,24.43
2019-02-21T11:38:39.219Z,24.63
2019-02-21T11:41:19.296Z,25.40
2019-02-21T11:43:59.291Z,24.20
2019-02-21T11:46:39.364Z,25.10
2019-02-21T11:49:19.427Z,23.33
2019-02-21T11:52:09.602Z,23.23
2019-02-21T11:54:41.555Z,23.73
2019-02-21T11:57:21.661Z,23.50
2019-02-21T12:00:01.741Z,23.37
2019-02-21T12:02:42.118Z,23.43
2019-02-21T12:05:30.555Z,22.87
2019-02-21T12:07:51.367Z,23.30
2019-02-21T12:10:18.811Z,22.67
2019-02-21T12:12:46.166Z,23.37
2019-02-21T12:15:13.556Z,23.23
2019-02-21T12:17:42.690Z,23.43
2019-02-21T12:20:11.054Z,23.87
2019-02-21T12:22:38.421Z,22.90
2019-02-21T12:25:07.625Z,23.03
2019-02-21T12:27:35.156Z,22.70
2019-02-21T12:30:22.142Z,23.80
2019-02-21T12:33:08.978Z,22.97
2019-02-21T12:35:55.854Z,23.33
2019-02-21T12:38:42.760Z,22.60
2019-02-21T12:41:29.604Z,22.97
2019-02-21T12:44:16.489Z,23.30
2019-02-21T12:47:03.539Z,22.73
2019-02-21T12:49:50.451Z,21.73
2019-02-21T12:52:37.270Z,22.10
2019-02-21T12:55:29.437Z,22.77
2019-02-21T12:58:32.793Z,20.77
2019-02-21T13:01:19.658Z,21.20
2019-02-21T13:04:06.420Z,20.30
2019-02-21T13:06:53.309Z,20.73
2019-02-21T13:09:40.225Z,20.37
2019-02-21T13:12:27.120Z,19.47
2019-02-21T13:15:13.970Z,19.87
2019-02-21T13:18:00.828Z,19.93
2019-02-21T13:20:47.679Z,20.93
2019-02-21T13:23:34.427Z,20.23
2019-02-21T13:26:21.314Z,20.93
2019-02-21T13:29:08.264Z,20.43
2019-02-21T13:31:55.119Z,20.60
2019-02-21T13:34:44.299Z,21.23
2019-02-21T13:37:31.158Z,19.93
2019-02-21T13:40:20.976Z,20.80
2019-02-21T13:43:26.640Z,21.60
2019-02-21T13:46:16.485Z,20.80
2019-02-21T13:49:03.313Z,20.87
2019-02-21T13:51:50.160Z,21.13
2019-02-21T13:54:37.048Z,20.47
2019-02-21T13:57:23.898Z,20.60
2019-02-21T14:00:12.075Z,21.10
2019-02-21T14:02:58.947Z,21.67
2019-02-21T14:05:45.856Z,20.07
2019-02-21T14:08:32.726Z,20.47
2019-02-21T14:11:19.702Z,22.47
2019-02-21T14:14:06.663Z,20.53
2019-02-21T14:16:53.416Z,21.43
2019-02-21T14:22:54.491Z,21.03
2019-02-21T14:25:41.605Z,21.70
2019-02-21T14:28:21.393Z,21.43
2019-02-21T14:31:01.193Z,21.07
2019-02-21T14:33:41.435Z,22.40
2019-02-21T14:36:21.632Z,21.90
2019-02-21T14:39:01.565Z,22.00
2019-02-21T14:41:43.868Z,21.57
2019-02-21T14:44:23.341Z,21.93
2019-02-21T14:47:03.582Z,24.60
2019-02-21T14:49:43.404Z,23.57
2019-02-21T14:52:23.457Z,22.37
2019-02-21T14:55:03.351Z,22.67
2019-02-21T14:57:43.527Z,22.50
2019-02-21T15:00:23.567Z,23.23
2019-02-21T15:03:03.650Z,23.33
2019-02-21T15:05:43.690Z,22.77
2019-02-21T15:08:23.857Z,21.87
2019-02-21T15:11:03.890Z,22.03
2019-02-21T15:13:43.965Z,22.13
2019-02-21T15:16:24.040Z,22.67
2019-02-21T15:19:04.174Z,22.30
2019-02-21T15:21:44.166Z,20.80
2019-02-21T15:24:24.182Z,22.43
2019-02-21T15:27:08.427Z,22.70
2019-02-21T15:29:46.360Z,22.43
2019-02-21T15:32:26.276Z,22.67
2019-02-21T15:35:06.558Z,21.97
2019-02-21T15:37:46.724Z,22.00
2019-02-21T15:40:28.797Z,21.97
2019-02-21T15:43:08.446Z,21.97
2019-02-21T15:45:48.617Z,23.17
2019-02-21T15:48:28.566Z,22.90
2019-02-21T15:51:08.518Z,23.23
2019-02-21T15:53:48.454Z,21.70
2019-02-21T15:56:15.878Z,21.90
2019-02-21T15:58:43.274Z,22.90
2019-02-21T16:01:10.734Z,21.70
2019-02-21T16:03:38.146Z,22.60
2019-02-21T16:06:05.540Z,23.50
2019-02-21T16:08:32.953Z,22.57
2019-02-21T16:11:00.350Z,23.07
2019-02-21T16:13:28.073Z,23.13
2019-02-21T16:15:55.772Z,24.53
2019-02-21T16:18:23.195Z,22.97
2019-02-21T16:20:52.934Z,24.57
2019-02-21T16:23:19.853Z,23.53
2019-02-21T16:25:47.236Z,23.87
2019-02-21T16:28:34.117Z,24.63
2019-02-21T16:31:13.995Z,22.20
2019-02-21T16:33:53.996Z,24.37
2019-02-21T16:36:34.046Z,23.43
2019-02-21T16:39:14.026Z,23.50
2019-02-21T16:41:54.083Z,23.67
2019-02-21T16:44:34.147Z,22.80
2019-02-21T16:47:14.367Z,23.10
2019-02-21T16:49:54.442Z,24.23
2019-02-21T16:52:36.774Z,24.53
2019-02-21T16:55:16.721Z,24.53
2019-02-21T16:57:56.565Z,28.57
2019-02-21T17:00:47.786Z,25.03
2019-02-21T17:03:05.981Z,24.27
2019-02-21T17:05:33.326Z,24.30
2019-02-21T17:08:00.685Z,25.03
2019-02-21T17:10:28.055Z,25.13
2019-02-21T17:12:55.427Z,24.50
2019-02-21T17:15:22.837Z,24.93
2019-02-21T17:17:50.200Z,26.10
2019-02-21T17:20:17.593Z,25.87
2019-02-21T17:22:45.017Z,24.50
2019-02-21T17:25:13.255Z,24.23
2019-02-21T17:27:40.718Z,25.43
2019-02-21T17:30:09.781Z,24.73
2019-02-21T17:32:37.114Z,25.27
2019-02-21T17:35:23.978Z,25.17
2019-02-21T17:38:10.812Z,25.37
2019-02-21T17:40:57.707Z,26.63
2019-02-21T17:43:44.559Z,25.87
2019-02-21T17:46:31.444Z,24.63
2019-02-21T17:49:18.341Z,28.80
2019-02-21T17:52:05.232Z,27.33
2019-02-21T17:54:52.055Z,25.80
2019-02-21T17:57:39.137Z,26.67
2019-02-21T18:00:45.473Z,25.80
2019-02-21T18:03:33.930Z,25.30
2019-02-21T18:06:40.900Z,26.13
2019-02-21T18:09:27.787Z,24.50
2019-02-21T18:12:14.619Z,25.47
2019-02-21T18:15:01.462Z,23.23
2019-02-21T18:17:48.320Z,21.50
2019-02-21T18:20:35.213Z,20.13
2019-02-21T18:23:22.045Z,20.70
2019-02-21T18:29:45.132Z,20.97
2019-02-21T18:32:31.997Z,21.10
2019-02-21T18:34:59.415Z,20.70
2019-02-21T18:37:26.809Z,19.73
2019-02-21T18:39:54.199Z,20.63
2019-02-21T18:42:21.607Z,19.03
2019-02-21T18:44:48.982Z,18.53
2019-02-21T18:47:16.297Z,19.47
2019-02-21T18:49:43.750Z,20.70
2019-02-21T18:52:11.190Z,21.90
2019-02-21T18:54:38.489Z,20.63
2019-02-21T18:57:08.935Z,21.23
2019-02-21T18:59:55.761Z,20.80
2019-02-21T19:02:42.768Z,19.87
2019-02-21T19:05:35.800Z,19.97
2019-02-21T19:08:38.291Z,21.10
2019-02-21T19:11:25.128Z,19.73
2019-02-21T19:17:24.644Z,21.07
2019-02-21T19:20:11.737Z,21.33
2019-02-21T19:22:39.109Z,22.27
2019-02-21T19:25:25.949Z,22.30
2019-02-21T19:28:05.681Z,23.83
2019-02-21T19:30:46.073Z,24.57
2019-02-21T19:33:26.005Z,24.10
2019-02-21T19:36:06.025Z,24.13
2019-02-21T19:38:46.146Z,23.77
2019-02-21T19:41:26.201Z,23.90
2019-02-21T19:44:09.212Z,23.97
2019-02-21T19:46:48.437Z,24.40
2019-02-21T19:49:28.717Z,24.93
2019-02-21T19:52:08.678Z,25.13
2019-02-21T19:54:49.162Z,23.83
2019-02-21T19:57:28.824Z,25.07
2019-02-21T20:00:08.997Z,25.80
2019-02-21T20:02:49.076Z,25.17
2019-02-21T20:05:29.155Z,25.07
2019-02-21T20:08:09.260Z,24.30
2019-02-21T20:10:49.189Z,26.03
2019-02-21T20:13:29.231Z,24.67
2019-02-21T20:15:56.651Z,25.30
2019-02-21T20:18:24.042Z,24.60
2019-02-21T20:20:51.395Z,25.90
2019-02-21T20:23:18.785Z,25.37
2019-02-21T20:26:05.652Z,25.40
2019-02-21T20:28:45.264Z,24.60
2019-02-21T20:31:25.460Z,25.63
2019-02-21T20:34:05.562Z,24.80
2019-02-21T20:36:51.075Z,26.43
2019-02-21T20:39:27.554Z,26.20
2019-02-21T20:42:07.712Z,25.60
2019-02-21T20:44:48.051Z,26.17
2019-02-21T20:47:28.528Z,25.67
2019-02-21T20:50:08.780Z,27.27
2019-02-21T20:52:48.814Z,25.87
2019-02-21T20:55:28.780Z,26.63
2019-02-21T20:58:08.613Z,27.90
2019-02-21T21:00:48.772Z,26.80
2019-02-21T21:03:28.841Z,29.33
2019-02-21T21:06:08.995Z,26.73
2019-02-21T21:08:49.043Z,29.90
2019-02-21T21:11:29.287Z,30.47
2019-02-21T21:14:09.389Z,29.70
2019-02-21T21:16:49.465Z,29.07
2019-02-21T21:19:29.516Z,29.57
2019-02-21T21:22:09.512Z,31.63
2019-02-21T21:24:49.971Z,30.27
2019-02-21T21:27:29.869Z,31.07
2019-02-21T21:30:10.076Z,32.07
2019-02-21T21:32:49.982Z,32.07
2019-02-21T21:35:29.994Z,33.43
2019-02-21T21:38:10.280Z,33.37
2019-02-21T21:40:50.334Z,33.17
2019-02-21T21:43:30.268Z,34.10
2019-02-21T21:46:10.284Z,34.27
2019-02-21T21:48:50.452Z,33.53
2019-02-21T21:51:30.338Z,33.40
2019-02-21T21:54:10.418Z,34.83
2019-02-21T21:56:50.386Z,34.00
2019-02-21T21:59:30.718Z,34.10
2019-02-21T22:02:10.448Z,33.17
2019-02-21T22:04:50.832Z,34.67
2019-02-21T22:07:30.796Z,31.10
2019-02-21T22:10:10.764Z,32.03
2019-02-21T22:12:51.196Z,32.43
2019-02-21T22:15:31.484Z,31.53
2019-02-21T22:18:11.568Z,32.90
2019-02-21T22:20:51.462Z,33.40
2019-02-21T22:23:31.406Z,33.60
2019-02-21T22:26:11.329Z,33.40
2019-02-21T22:28:51.518Z,32.70
2019-02-21T22:31:31.490Z,32.77
2019-02-21T22:34:11.566Z,34.20
2019-02-21T22:36:51.462Z,33.57
2019-02-21T22:39:31.545Z,34.03
2019-02-21T22:42:11.374Z,35.10
2019-02-21T22:44:51.215Z,34.90
2019-02-21T22:47:31.310Z,34.17
2019-02-21T22:50:11.282Z,35.27
2019-02-21T22:52:38.659Z,35.47
2019-02-21T22:55:25.505Z,32.80
2019-02-21T22:58:12.450Z,34.13
2019-02-21T23:04:51.810Z,34.70
2019-02-21T23:07:58.120Z,34.50
2019-02-21T23:10:45.050Z,34.60
2019-02-21T23:13:31.880Z,37.43
2019-02-21T23:16:18.848Z,36.83
2019-02-21T23:19:05.698Z,35.67
2019-02-21T23:21:52.538Z,36.23
2019-02-21T23:24:32.636Z,35.10
2019-02-21T23:27:12.552Z,35.70
2019-02-21T23:29:52.718Z,36.63
2019-02-21T23:32:32.906Z,35.50
2019-02-21T23:35:18.565Z,38.43
2019-02-21T23:37:58.380Z,35.90
2019-02-21T23:40:38.275Z,37.97
2019-02-21T23:43:19.516Z,39.50
2019-02-21T23:45:59.634Z,36.70
2019-02-21T23:48:39.706Z,37.57
2019-02-21T23:51:19.890Z,37.10
2019-02-21T23:54:03.086Z,38.63
2019-02-21T23:56:42.240Z,39.13
2019-02-21T23:59:22.230Z,39.67
